createdAt,value
2023-04-27T00:27:24.962Z,9.22
2023-04-27T00:57:24.884Z,8.63
2023-04-27T01:27:24.675Z,8.03
2023-04-27T01:57:24.741Z,7.64
2023-04-27T02:27:24.813Z,7.02
2023-04-27T03:27:25.249Z,6.8
2023-04-27T03:27:25.545Z,6.68
2023-04-27T03:57:26.667Z,6.88
2023-04-27T04:27:24.570Z,6.84
2023-04-27T04:57:24.631Z,7.01
2023-04-27T05:27:24.509Z,7.37
2023-04-27T05:57:24.366Z,8.07
2023-04-27T06:27:24.886Z,9.57
2023-04-27T06:57:24.198Z,11.48
2023-04-27T07:27:26.560Z,13.22
2023-04-27T07:57:24.267Z,15.28
2023-04-27T08:27:24.538Z,18.8
2023-04-27T08:57:23.997Z,20.62
2023-04-27T09:27:24.240Z,19.8
2023-04-27T09:57:23.821Z,20.06
2023-04-27T10:27:24.048Z,21.23
2023-04-27T10:57:24.276Z,22.29
2023-04-27T11:27:23.864Z,22.1
2023-04-27T11:57:23.732Z,22.19
2023-04-27T12:27:23.919Z,22.84
2023-04-27T12:57:23.488Z,22.13
2023-04-27T13:27:23.708Z,22.34
2023-04-27T13:57:23.951Z,22.31
2023-04-27T14:27:23.824Z,22.02
2023-04-27T14:57:23.672Z,22.01
2023-04-27T15:27:23.487Z,21.98
2023-04-27T15:57:23.012Z,21.87
2023-04-27T16:27:23.678Z,21.55
2023-04-27T16:57:23.284Z,20.79
2023-04-27T17:27:23.307Z,20.29
2023-04-27T17:57:23.399Z,19.41
2023-04-27T18:27:23.243Z,18.23
2023-04-27T18:57:23.152Z,17.52
2023-04-27T19:27:23.053Z,17.07
2023-04-27T19:57:22.966Z,16.1
2023-04-27T20:27:23.120Z,15.53
2023-04-27T21:27:22.758Z,14.12
2023-04-27T21:57:22.806Z,13.25
2023-04-27T22:27:23.650Z,13.02
2023-04-27T22:57:22.732Z,12.93
2023-04-27T23:27:22.501Z,13.0
2023-04-27T23:57:22.842Z,13.1
